sensor_id;sensor_type;location;lat;lon;timestamp;pressure;altitude;pressure_sealevel;temperature;humidity
72585;BME280;73873;40.084;32.908;2024-01-07T00:00:42;89652.78;;;3.94;81.60
72585;BME280;73873;40.084;32.908;2024-01-07T00:03:09;89654.59;;;3.97;81.74
72585;BME280;73873;40.084;32.908;2024-01-07T00:05:36;89661.09;;;4.05;81.46
72585;BME280;73873;40.084;32.908;2024-01-07T00:08:03;89646.34;;;3.95;81.82
72585;BME280;73873;40.084;32.908;2024-01-07T00:10:30;89648.28;;;3.82;82.06
72585;BME280;73873;40.084;32.908;2024-01-07T00:12:57;89652.78;;;3.47;83.41
72585;BME280;73873;40.084;32.908;2024-01-07T00:15:24;89650.69;;;3.29;85.36
72585;BME280;73873;40.084;32.908;2024-01-07T00:17:51;89648.81;;;3.42;84.47
72585;BME280;73873;40.084;32.908;2024-01-07T00:20:18;89644.91;;;3.34;84.57
72585;BME280;73873;40.084;32.908;2024-01-07T00:22:45;89651.09;;;3.53;83.51
72585;BME280;73873;40.084;32.908;2024-01-07T00:25:11;89651.84;;;3.53;83.47
72585;BME280;73873;40.084;32.908;2024-01-07T00:27:38;89660.25;;;3.61;82.81
72585;BME280;73873;40.084;32.908;2024-01-07T00:30:06;89665.41;;;3.64;82.60
72585;BME280;73873;40.084;32.908;2024-01-07T00:32:33;89653.19;;;3.70;82.29
72585;BME280;73873;40.084;32.908;2024-01-07T00:35:00;89654.81;;;3.77;81.87
72585;BME280;73873;40.084;32.908;2024-01-07T00:37:27;89651.72;;;3.69;81.77
72585;BME280;73873;40.084;32.908;2024-01-07T00:39:54;89648.81;;;3.77;81.77
72585;BME280;73873;40.084;32.908;2024-01-07T00:42:21;89645.34;;;3.80;81.97
72585;BME280;73873;40.084;32.908;2024-01-07T00:44:48;89644.81;;;3.85;81.40
72585;BME280;73873;40.084;32.908;2024-01-07T00:47:14;89636.09;;;3.75;81.57
72585;BME280;73873;40.084;32.908;2024-01-07T00:49:41;89638.19;;;3.67;81.86
72585;BME280;73873;40.084;32.908;2024-01-07T00:52:08;89634.44;;;3.68;81.45
72585;BME280;73873;40.084;32.908;2024-01-07T00:54:35;89634.19;;;3.76;81.51
72585;BME280;73873;40.084;32.908;2024-01-07T00:57:03;89648.81;;;3.77;81.42
72585;BME280;73873;40.084;32.908;2024-01-07T00:59:30;89637.97;;;3.75;81.60
72585;BME280;73873;40.084;32.908;2024-01-07T01:01:57;89633.38;;;3.66;82.42
72585;BME280;73873;40.084;32.908;2024-01-07T01:04:24;89617.69;;;3.62;82.61
72585;BME280;73873;40.084;32.908;2024-01-07T01:06:51;89616.09;;;3.65;83.13
72585;BME280;73873;40.084;32.908;2024-01-07T01:09:18;89603.66;;;3.65;83.40
72585;BME280;73873;40.084;32.908;2024-01-07T01:11:45;89588.72;;;3.62;83.59
72585;BME280;73873;40.084;32.908;2024-01-07T01:14:12;89595.59;;;3.60;83.51
72585;BME280;73873;40.084;32.908;2024-01-07T01:16:40;89593.34;;;3.58;84.04
72585;BME280;73873;40.084;32.908;2024-01-07T01:19:07;89598.16;;;3.73;83.23
72585;BME280;73873;40.084;32.908;2024-01-07T01:21:34;89598.38;;;3.78;83.66
72585;BME280;73873;40.084;32.908;2024-01-07T01:24:00;89604.03;;;3.89;82.96
72585;BME280;73873;40.084;32.908;2024-01-07T01:26:27;89593.91;;;3.88;82.53
72585;BME280;73873;40.084;32.908;2024-01-07T01:28:54;89593.09;;;3.78;82.41
72585;BME280;73873;40.084;32.908;2024-01-07T01:31:21;89589.47;;;3.85;82.67
72585;BME280;73873;40.084;32.908;2024-01-07T01:33:48;89585.38;;;3.84;81.83
72585;BME280;73873;40.084;32.908;2024-01-07T01:36:15;89590.28;;;3.73;82.20
72585;BME280;73873;40.084;32.908;2024-01-07T01:38:42;89589.41;;;3.28;83.64
72585;BME280;73873;40.084;32.908;2024-01-07T01:41:09;89588.91;;;3.21;84.50
72585;BME280;73873;40.084;32.908;2024-01-07T01:43:36;89591.41;;;3.37;84.21
72585;BME280;73873;40.084;32.908;2024-01-07T01:46:03;89581.50;;;3.41;83.80
72585;BME280;73873;40.084;32.908;2024-01-07T01:48:30;89584.56;;;3.39;84.34
72585;BME280;73873;40.084;32.908;2024-01-07T01:50:57;89587.25;;;3.61;83.86
72585;BME280;73873;40.084;32.908;2024-01-07T01:53:26;89584.13;;;3.76;82.98
72585;BME280;73873;40.084;32.908;2024-01-07T01:55:53;89570.31;;;3.84;82.27
72585;BME280;73873;40.084;32.908;2024-01-07T01:58:21;89573.69;;;3.50;82.90
72585;BME280;73873;40.084;32.908;2024-01-07T02:00:50;89576.50;;;3.56;83.18
72585;BME280;73873;40.084;32.908;2024-01-07T02:03:18;89570.09;;;3.57;83.50
72585;BME280;73873;40.084;32.908;2024-01-07T02:05:45;89564.16;;;3.65;83.11
72585;BME280;73873;40.084;32.908;2024-01-07T02:08:13;89564.44;;;3.80;82.62
72585;BME280;73873;40.084;32.908;2024-01-07T02:10:40;89557.72;;;3.66;82.72
72585;BME280;73873;40.084;32.908;2024-01-07T02:13:08;89545.50;;;3.73;82.49
72585;BME280;73873;40.084;32.908;2024-01-07T02:15:36;89542.94;;;3.82;82.19
72585;BME280;73873;40.084;32.908;2024-01-07T02:18:03;89543.97;;;3.84;81.90
72585;BME280;73873;40.084;32.908;2024-01-07T02:20:30;89544.47;;;3.23;84.10
72585;BME280;73873;40.084;32.908;2024-01-07T02:22:57;89545.38;;;2.69;88.24
72585;BME280;73873;40.084;32.908;2024-01-07T02:25:24;89539.81;;;2.79;88.43
72585;BME280;73873;40.084;32.908;2024-01-07T02:27:51;89534.09;;;2.94;87.09
72585;BME280;73873;40.084;32.908;2024-01-07T02:30:18;89526.81;;;3.10;86.02
72585;BME280;73873;40.084;32.908;2024-01-07T02:32:45;89531.41;;;3.32;84.87
72585;BME280;73873;40.084;32.908;2024-01-07T02:35:12;89532.63;;;3.40;84.23
72585;BME280;73873;40.084;32.908;2024-01-07T02:37:39;89518.00;;;3.39;84.51
72585;BME280;73873;40.084;32.908;2024-01-07T02:40:06;89522.00;;;3.44;83.32
72585;BME280;73873;40.084;32.908;2024-01-07T02:42:33;89522.53;;;3.51;83.38
72585;BME280;73873;40.084;32.908;2024-01-07T02:45:00;89514.06;;;3.56;83.20
72585;BME280;73873;40.084;32.908;2024-01-07T07:05:12;89504.78;;;2.57;95.64
72585;BME280;73873;40.084;32.908;2024-01-07T07:07:39;89500.88;;;2.74;94.59
72585;BME280;73873;40.084;32.908;2024-01-07T07:10:06;89496.88;;;2.82;93.91
72585;BME280;73873;40.084;32.908;2024-01-07T07:12:34;89502.75;;;2.99;93.54
72585;BME280;73873;40.084;32.908;2024-01-07T07:15:06;89488.59;;;3.19;92.97
72585;BME280;73873;40.084;32.908;2024-01-07T07:17:33;89490.78;;;3.33;91.01
72585;BME280;73873;40.084;32.908;2024-01-07T07:20:00;89486.50;;;3.48;90.24
72585;BME280;73873;40.084;32.908;2024-01-07T07:22:27;89486.25;;;3.55;89.07
72585;BME280;73873;40.084;32.908;2024-01-07T07:24:54;89489.19;;;3.35;86.49
72585;BME280;73873;40.084;32.908;2024-01-07T07:27:25;89482.38;;;3.25;87.08
72585;BME280;73873;40.084;32.908;2024-01-07T07:29:51;89474.13;;;3.36;87.90
72585;BME280;73873;40.084;32.908;2024-01-07T07:32:20;89465.56;;;3.66;88.22
72585;BME280;73873;40.084;32.908;2024-01-07T07:34:47;89454.16;;;3.91;85.43
72585;BME280;73873;40.084;32.908;2024-01-07T07:37:14;89452.66;;;4.12;83.54
72585;BME280;73873;40.084;32.908;2024-01-07T07:39:47;89445.47;;;4.44;83.19
72585;BME280;73873;40.084;32.908;2024-01-07T07:42:14;89444.34;;;4.63;81.25
72585;BME280;73873;40.084;32.908;2024-01-07T07:44:41;89463.56;;;4.73;80.20
72585;BME280;73873;40.084;32.908;2024-01-07T07:47:08;89454.09;;;4.94;78.53
72585;BME280;73873;40.084;32.908;2024-01-07T07:49:35;89457.78;;;4.96;75.95
72585;BME280;73873;40.084;32.908;2024-01-07T07:52:03;89455.91;;;5.24;76.79
72585;BME280;73873;40.084;32.908;2024-01-07T07:54:29;89449.91;;;5.33;82.81
72585;BME280;73873;40.084;32.908;2024-01-07T07:57:00;89452.69;;;5.38;81.01
72585;BME280;73873;40.084;32.908;2024-01-07T07:59:27;89444.91;;;5.35;79.92
72585;BME280;73873;40.084;32.908;2024-01-07T08:01:54;89462.94;;;5.55;80.38
72585;BME280;73873;40.084;32.908;2024-01-07T08:04:21;89456.38;;;5.50;83.67
72585;BME280;73873;40.084;32.908;2024-01-07T08:06:49;89453.00;;;5.59;84.04
72585;BME280;73873;40.084;32.908;2024-01-07T08:09:15;89452.25;;;5.95;82.77
72585;BME280;73873;40.084;32.908;2024-01-07T08:11:42;89448.06;;;6.21;80.41
72585;BME280;73873;40.084;32.908;2024-01-07T08:14:09;89438.31;;;6.37;79.63
72585;BME280;73873;40.084;32.908;2024-01-07T08:16:36;89429.28;;;6.52;78.04
72585;BME280;73873;40.084;32.908;2024-01-07T08:19:03;89424.59;;;6.57;75.61
72585;BME280;73873;40.084;32.908;2024-01-07T08:21:30;89439.47;;;6.78;77.29
72585;BME280;73873;40.084;32.908;2024-01-07T08:23:57;89437.63;;;6.93;73.80
72585;BME280;73873;40.084;32.908;2024-01-07T08:26:24;89421.06;;;6.83;76.79
72585;BME280;73873;40.084;32.908;2024-01-07T08:28:51;89415.06;;;6.83;75.62
72585;BME280;73873;40.084;32.908;2024-01-07T08:31:18;89409.28;;;6.61;75.56
72585;BME280;73873;40.084;32.908;2024-01-07T08:33:45;89400.94;;;6.11;76.75
72585;BME280;73873;40.084;32.908;2024-01-07T08:36:12;89411.75;;;5.52;77.52
72585;BME280;73873;40.084;32.908;2024-01-07T08:38:39;89414.13;;;5.32;79.36
72585;BME280;73873;40.084;32.908;2024-01-07T08:41:06;89409.28;;;5.30;79.98
72585;BME280;73873;40.084;32.908;2024-01-07T08:43:33;89401.03;;;5.37;80.00
72585;BME280;73873;40.084;32.908;2024-01-07T08:46:00;89406.75;;;5.63;78.65
72585;BME280;73873;40.084;32.908;2024-01-07T08:48:27;89384.75;;;5.66;77.87
72585;BME280;73873;40.084;32.908;2024-01-07T08:50:54;89384.28;;;5.77;79.08
72585;BME280;73873;40.084;32.908;2024-01-07T08:53:21;89381.19;;;5.79;78.22
72585;BME280;73873;40.084;32.908;2024-01-07T08:55:48;89378.38;;;5.91;78.41
72585;BME280;73873;40.084;32.908;2024-01-07T08:58:15;89369.72;;;5.82;77.43
72585;BME280;73873;40.084;32.908;2024-01-07T09:00:43;89358.72;;;5.74;78.78
72585;BME280;73873;40.084;32.908;2024-01-07T09:03:10;89356.22;;;5.80;80.92
72585;BME280;73873;40.084;32.908;2024-01-07T09:05:37;89349.06;;;5.71;81.47
72585;BME280;73873;40.084;32.908;2024-01-07T09:08:04;89352.88;;;5.70;80.77
72585;BME280;73873;40.084;32.908;2024-01-07T09:10:32;89347.28;;;5.77;82.10
72585;BME280;73873;40.084;32.908;2024-01-07T09:12:59;89350.63;;;5.87;81.58
72585;BME280;73873;40.084;32.908;2024-01-07T09:15:26;89340.13;;;6.11;82.27
72585;BME280;73873;40.084;32.908;2024-01-07T09:17:52;89342.38;;;6.36;80.26
72585;BME280;73873;40.084;32.908;2024-01-07T09:20:19;89342.03;;;6.43;78.85
72585;BME280;73873;40.084;32.908;2024-01-07T09:22:46;89325.59;;;6.63;78.91
72585;BME280;73873;40.084;32.908;2024-01-07T09:25:13;89328.13;;;6.81;79.61
72585;BME280;73873;40.084;32.908;2024-01-07T09:27:40;89324.63;;;6.99;78.77
72585;BME280;73873;40.084;32.908;2024-01-07T09:30:07;89318.00;;;7.04;77.75
72585;BME280;73873;40.084;32.908;2024-01-07T09:32:34;89308.66;;;7.08;77.34
72585;BME280;73873;40.084;32.908;2024-01-07T09:35:04;89301.63;;;6.67;80.09
72585;BME280;73873;40.084;32.908;2024-01-07T09:37:31;89285.47;;;6.65;80.09
72585;BME280;73873;40.084;32.908;2024-01-07T09:39:58;89285.69;;;6.76;80.64
72585;BME280;73873;40.084;32.908;2024-01-07T09:42:25;89286.78;;;6.69;81.59
72585;BME280;73873;40.084;32.908;2024-01-07T09:44:53;89275.19;;;6.81;81.79
72585;BME280;73873;40.084;32.908;2024-01-07T09:47:26;89272.63;;;7.11;80.29
72585;BME280;73873;40.084;32.908;2024-01-07T09:49:53;89282.09;;;7.18;77.89
72585;BME280;73873;40.084;32.908;2024-01-07T09:52:22;89281.66;;;7.04;79.70
72585;BME280;73873;40.084;32.908;2024-01-07T09:54:51;89278.88;;;6.84;79.13
72585;BME280;73873;40.084;32.908;2024-01-07T09:57:18;89268.06;;;6.73;80.59
72585;BME280;73873;40.084;32.908;2024-01-07T09:59:46;89270.22;;;6.98;80.29
72585;BME280;73873;40.084;32.908;2024-01-07T10:02:14;89262.63;;;6.91;78.28
72585;BME280;73873;40.084;32.908;2024-01-07T10:04:41;89273.78;;;6.95;81.17
72585;BME280;73873;40.084;32.908;2024-01-07T10:07:08;89261.00;;;7.08;80.73
72585;BME280;73873;40.084;32.908;2024-01-07T10:09:35;89239.75;;;7.18;80.38
72585;BME280;73873;40.084;32.908;2024-01-07T10:12:02;89242.59;;;7.29;79.58
72585;BME280;73873;40.084;32.908;2024-01-07T10:14:29;89246.31;;;7.66;77.02
72585;BME280;73873;40.084;32.908;2024-01-07T10:16:59;89243.41;;;7.64;76.87
72585;BME280;73873;40.084;32.908;2024-01-07T10:19:26;89233.97;;;7.63;76.44
72585;BME280;73873;40.084;32.908;2024-01-07T10:22:01;89221.53;;;7.55;76.48
72585;BME280;73873;40.084;32.908;2024-01-07T10:24:35;89216.81;;;7.59;78.46
72585;BME280;73873;40.084;32.908;2024-01-07T10:27:03;89206.81;;;7.68;76.83
72585;BME280;73873;40.084;32.908;2024-01-07T10:29:30;89203.94;;;7.87;75.35
72585;BME280;73873;40.084;32.908;2024-01-07T10:31:57;89201.72;;;8.00;74.45
72585;BME280;73873;40.084;32.908;2024-01-07T10:34:26;89208.88;;;7.94;73.51
72585;BME280;73873;40.084;32.908;2024-01-07T10:36:56;89218.19;;;7.89;73.92
72585;BME280;73873;40.084;32.908;2024-01-07T10:39:25;89220.13;;;7.89;74.71
72585;BME280;73873;40.084;32.908;2024-01-07T10:41:52;89207.06;;;7.85;74.57
72585;BME280;73873;40.084;32.908;2024-01-07T10:44:19;89205.31;;;7.32;76.56
72585;BME280;73873;40.084;32.908;2024-01-07T10:46:46;89210.06;;;7.14;78.11
72585;BME280;73873;40.084;32.908;2024-01-07T10:49:20;89196.75;;;6.93;79.73
72585;BME280;73873;40.084;32.908;2024-01-07T10:54:28;89172.81;;;6.88;82.20
72585;BME280;73873;40.084;32.908;2024-01-07T10:56:58;89172.44;;;7.09;82.41
72585;BME280;73873;40.084;32.908;2024-01-07T10:59:26;89167.81;;;7.19;81.23
72585;BME280;73873;40.084;32.908;2024-01-07T11:01:54;89165.22;;;7.25;81.48
72585;BME280;73873;40.084;32.908;2024-01-07T11:07:35;89169.69;;;7.19;81.30
72585;BME280;73873;40.084;32.908;2024-01-07T11:10:18;89153.47;;;6.96;81.90
72585;BME280;73873;40.084;32.908;2024-01-07T11:12:54;89163.78;;;6.94;83.00
72585;BME280;73873;40.084;32.908;2024-01-07T11:18:19;89150.44;;;7.18;80.38
72585;BME280;73873;40.084;32.908;2024-01-07T11:20:47;89142.50;;;7.03;80.07
72585;BME280;73873;40.084;32.908;2024-01-07T11:23:34;89128.19;;;7.10;81.23
72585;BME280;73873;40.084;32.908;2024-01-07T11:26:02;89112.50;;;7.27;80.92
72585;BME280;73873;40.084;32.908;2024-01-07T11:28:49;89134.09;;;7.20;79.68
72585;BME280;73873;40.084;32.908;2024-01-07T11:31:18;89128.09;;;7.04;82.92
72585;BME280;73873;40.084;32.908;2024-01-07T11:33:50;89135.28;;;7.04;83.85
72585;BME280;73873;40.084;32.908;2024-01-07T11:36:18;89128.09;;;7.04;82.70
72585;BME280;73873;40.084;32.908;2024-01-07T11:38:48;89127.91;;;6.93;83.73
72585;BME280;73873;40.084;32.908;2024-01-07T11:41:20;89121.59;;;7.05;83.22
72585;BME280;73873;40.084;32.908;2024-01-07T11:46:23;89108.69;;;7.28;80.58
72585;BME280;73873;40.084;32.908;2024-01-07T11:48:58;89115.09;;;7.21;79.20
72585;BME280;73873;40.084;32.908;2024-01-07T11:51:29;89105.59;;;7.15;79.15
72585;BME280;73873;40.084;32.908;2024-01-07T11:53:57;89113.19;;;7.22;77.91
72585;BME280;73873;40.084;32.908;2024-01-07T11:56:24;89112.50;;;7.27;79.50
72585;BME280;73873;40.084;32.908;2024-01-07T11:58:51;89096.50;;;7.36;79.78
72585;BME280;73873;40.084;32.908;2024-01-07T12:01:19;89102.81;;;7.38;80.24
72585;BME280;73873;40.084;32.908;2024-01-07T12:03:46;89094.94;;;7.44;79.76
72585;BME280;73873;40.084;32.908;2024-01-07T12:06:13;89077.97;;;7.36;77.30
72585;BME280;73873;40.084;32.908;2024-01-07T12:08:43;89090.31;;;7.39;78.06
72585;BME280;73873;40.084;32.908;2024-01-07T12:11:12;89103.97;;;7.52;78.65
72585;BME280;73873;40.084;32.908;2024-01-07T12:13:39;89083.63;;;7.44;78.38
72585;BME280;73873;40.084;32.908;2024-01-07T12:16:08;89090.94;;;7.34;82.09
72585;BME280;73873;40.084;32.908;2024-01-07T12:18:41;89093.34;;;7.32;85.95
72585;BME280;73873;40.084;32.908;2024-01-07T12:21:09;89093.06;;;7.30;87.85
72585;BME280;73873;40.084;32.908;2024-01-07T12:23:37;89080.25;;;7.43;85.15
72585;BME280;73873;40.084;32.908;2024-01-07T12:26:10;89100.72;;;7.63;83.96
72585;BME280;73873;40.084;32.908;2024-01-07T12:28:38;89101.41;;;7.78;83.68
72585;BME280;73873;40.084;32.908;2024-01-07T12:31:05;89083.44;;;7.88;82.95
72585;BME280;73873;40.084;32.908;2024-01-07T12:33:33;89067.53;;;7.88;82.27
72585;BME280;73873;40.084;32.908;2024-01-07T12:36:01;89061.56;;;7.73;83.33
72585;BME280;73873;40.084;32.908;2024-01-07T12:38:28;89071.59;;;7.28;89.63
72585;BME280;73873;40.084;32.908;2024-01-07T12:40:55;89046.50;;;6.88;91.43
72585;BME280;73873;40.084;32.908;2024-01-07T12:43:23;89044.22;;;6.81;90.60
72585;BME280;73873;40.084;32.908;2024-01-07T12:45:50;89050.84;;;6.91;89.69
72585;BME280;73873;40.084;32.908;2024-01-07T12:48:19;89057.06;;;6.88;86.99
72585;BME280;73873;40.084;32.908;2024-01-07T12:50:46;89054.78;;;6.96;85.79
72585;BME280;73873;40.084;32.908;2024-01-07T12:53:13;89056.59;;;7.04;86.11
72585;BME280;73873;40.084;32.908;2024-01-07T12:55:40;89051.41;;;7.10;84.97
72585;BME280;73873;40.084;32.908;2024-01-07T12:58:07;89049.78;;;7.18;85.20
72585;BME280;73873;40.084;32.908;2024-01-07T13:00:34;89044.78;;;7.20;87.50
72585;BME280;73873;40.084;32.908;2024-01-07T13:03:01;89047.66;;;7.37;85.71
72585;BME280;73873;40.084;32.908;2024-01-07T13:05:28;89049.97;;;7.50;85.43
72585;BME280;73873;40.084;32.908;2024-01-07T13:07:56;89052.16;;;7.51;86.40
72585;BME280;73873;40.084;32.908;2024-01-07T13:10:23;89036.13;;;7.40;89.99
72585;BME280;73873;40.084;32.908;2024-01-07T13:12:50;89039.44;;;7.35;90.95
72585;BME280;73873;40.084;32.908;2024-01-07T13:15:26;89041.28;;;7.29;92.73
72585;BME280;73873;40.084;32.908;2024-01-07T13:17:52;89042.28;;;7.31;93.25
72585;BME280;73873;40.084;32.908;2024-01-07T13:20:19;89039.44;;;7.35;92.63
72585;BME280;73873;40.084;32.908;2024-01-07T13:22:47;89068.72;;;7.46;92.52
72585;BME280;73873;40.084;32.908;2024-01-07T13:25:14;89073.16;;;7.55;93.43
72585;BME280;73873;40.084;32.908;2024-01-07T13:27:41;89075.63;;;7.58;94.94
72585;BME280;73873;40.084;32.908;2024-01-07T13:30:08;89080.06;;;7.67;94.57
72585;BME280;73873;40.084;32.908;2024-01-07T13:32:35;89074.25;;;7.83;95.16
72585;BME280;73873;40.084;32.908;2024-01-07T13:35:04;89072.97;;;7.99;95.30
72585;BME280;73873;40.084;32.908;2024-01-07T13:37:31;89073.63;;;8.14;93.61
72585;BME280;73873;40.084;32.908;2024-01-07T13:39:58;89058.69;;;8.17;94.43
72585;BME280;73873;40.084;32.908;2024-01-07T13:42:25;89057.19;;;8.10;96.23
72585;BME280;73873;40.084;32.908;2024-01-07T13:44:52;89053.75;;;8.04;97.27
72585;BME280;73873;40.084;32.908;2024-01-07T13:47:19;89056.50;;;8.15;96.58
72585;BME280;73873;40.084;32.908;2024-01-07T13:49:46;89049.19;;;8.31;95.83
72585;BME280;73873;40.084;32.908;2024-01-07T13:52:13;89065.53;;;8.23;97.79
72585;BME280;73873;40.084;32.908;2024-01-07T13:54:41;89055.16;;;8.25;97.82
72585;BME280;73873;40.084;32.908;2024-01-07T13:57:09;89053.56;;;8.34;99.38
72585;BME280;73873;40.084;32.908;2024-01-07T13:59:36;89049.59;;;8.23;100.00
72585;BME280;73873;40.084;32.908;2024-01-07T14:02:03;89040.13;;;8.17;100.00
72585;BME280;73873;40.084;32.908;2024-01-07T14:04:30;89030.84;;;8.27;100.00
72585;BME280;73873;40.084;32.908;2024-01-07T14:06:57;89022.03;;;8.15;100.00
72585;BME280;73873;40.084;32.908;2024-01-07T14:09:24;89026.53;;;8.30;100.00
72585;BME280;73873;40.084;32.908;2024-01-07T14:11:52;89031.66;;;8.13;100.00
72585;BME280;73873;40.084;32.908;2024-01-07T14:14:18;89024.31;;;8.02;100.00
72585;BME280;73873;40.084;32.908;2024-01-07T14:16:45;89024.47;;;7.93;100.00
72585;BME280;73873;40.084;32.908;2024-01-07T14:19:12;89006.41;;;7.97;100.00
72585;BME280;73873;40.084;32.908;2024-01-07T14:21:42;88998.28;;;8.01;100.00
72585;BME280;73873;40.084;32.908;2024-01-07T14:24:10;88994.03;;;7.88;100.00
72585;BME280;73873;40.084;32.908;2024-01-07T14:26:37;88979.94;;;7.77;100.00
72585;BME280;73873;40.084;32.908;2024-01-07T14:29:04;88997.03;;;7.76;100.00
72585;BME280;73873;40.084;32.908;2024-01-07T14:31:43;88997.03;;;7.76;100.00
72585;BME280;73873;40.084;32.908;2024-01-07T14:34:11;88999.75;;;7.81;100.00
72585;BME280;73873;40.084;32.908;2024-01-07T14:36:41;88998.94;;;7.95;100.00
72585;BME280;73873;40.084;32.908;2024-01-07T14:39:09;89007.88;;;7.98;100.00
72585;BME280;73873;40.084;32.908;2024-01-07T14:41:36;88996.84;;;8.05;100.00
72585;BME280;73873;40.084;32.908;2024-01-07T14:44:03;88998.84;;;8.10;100.00
72585;BME280;73873;40.084;32.908;2024-01-07T14:46:36;88984.47;;;8.22;100.00
72585;BME280;73873;40.084;32.908;2024-01-07T14:49:04;88988.19;;;8.31;100.00
72585;BME280;73873;40.084;32.908;2024-01-07T14:51:31;88987.78;;;8.38;100.00
72585;BME280;73873;40.084;32.908;2024-01-07T14:53:59;88968.75;;;8.39;99.68
72585;BME280;73873;40.084;32.908;2024-01-07T14:56:26;88981.28;;;8.39;100.00
72585;BME280;73873;40.084;32.908;2024-01-07T14:58:52;88973.06;;;8.37;99.94
72585;BME280;73873;40.084;32.908;2024-01-07T15:01:19;88981.38;;;8.50;98.58
72585;BME280;73873;40.084;32.908;2024-01-07T15:03:46;88974.25;;;8.67;96.42
72585;BME280;73873;40.084;32.908;2024-01-07T15:06:13;88959.47;;;8.55;97.98
72585;BME280;73873;40.084;32.908;2024-01-07T15:08:41;88966.00;;;8.60;96.66
72585;BME280;73873;40.084;32.908;2024-01-07T15:11:08;88975.56;;;8.46;98.09
72585;BME280;73873;40.084;32.908;2024-01-07T15:13:35;88969.94;;;8.38;98.77
72585;BME280;73873;40.084;32.908;2024-01-07T15:16:02;88948.38;;;8.31;98.98
72585;BME280;73873;40.084;32.908;2024-01-07T15:18:29;88945.09;;;8.36;98.13
72585;BME280;73873;40.084;32.908;2024-01-07T15:20:59;88966.81;;;8.40;97.88
72585;BME280;73873;40.084;32.908;2024-01-07T15:23:25;88965.41;;;8.76;93.90
72585;BME280;73873;40.084;32.908;2024-01-07T15:25:52;88946.50;;;8.63;94.33
72585;BME280;73873;40.084;32.908;2024-01-07T15:28:19;88954.09;;;8.49;96.22
72585;BME280;73873;40.084;32.908;2024-01-07T15:30:46;88946.25;;;8.66;94.01
72585;BME280;73873;40.084;32.908;2024-01-07T15:33:14;88944.00;;;8.53;95.79
72585;BME280;73873;40.084;32.908;2024-01-07T15:35:40;88943.78;;;8.57;95.29
72585;BME280;73873;40.084;32.908;2024-01-07T15:38:07;88939.69;;;8.56;94.70
72585;BME280;73873;40.084;32.908;2024-01-07T15:40:34;88934.13;;;8.54;95.10
72585;BME280;73873;40.084;32.908;2024-01-07T15:43:01;88947.78;;;8.78;93.08
72585;BME280;73873;40.084;32.908;2024-01-07T15:45:28;88935.28;;;8.85;91.62
72585;BME280;73873;40.084;32.908;2024-01-07T15:47:55;88911.22;;;8.62;93.24
72585;BME280;73873;40.084;32.908;2024-01-07T15:50:25;88914.13;;;8.59;94.13
72585;BME280;73873;40.084;32.908;2024-01-07T15:52:52;88908.69;;;8.42;95.83
72585;BME280;73873;40.084;32.908;2024-01-07T15:55:19;88897.34;;;8.36;96.07
72585;BME280;73873;40.084;32.908;2024-01-07T15:57:46;88901.69;;;8.39;96.07
72585;BME280;73873;40.084;32.908;2024-01-07T16:00:14;88911.88;;;8.20;97.95
72585;BME280;73873;40.084;32.908;2024-01-07T16:02:41;88902.50;;;8.24;97.81
72585;BME280;73873;40.084;32.908;2024-01-07T16:05:07;88904.41;;;8.18;98.05
72585;BME280;73873;40.084;32.908;2024-01-07T16:07:35;88909.75;;;8.24;98.36
72585;BME280;73873;40.084;32.908;2024-01-07T16:10:02;88903.81;;;8.35;97.17
72585;BME280;73873;40.084;32.908;2024-01-07T16:12:29;88913.50;;;8.38;96.63
72585;BME280;73873;40.084;32.908;2024-01-07T16:14:56;88923.88;;;8.36;96.96
72585;BME280;73873;40.084;32.908;2024-01-07T16:17:24;88921.31;;;8.26;97.42
72585;BME280;73873;40.084;32.908;2024-01-07T16:19:51;88917.19;;;8.20;97.57
72585;BME280;73873;40.084;32.908;2024-01-07T16:22:18;88919.59;;;8.18;97.76
72585;BME280;73873;40.084;32.908;2024-01-07T16:24:45;88920.50;;;8.09;98.24
72585;BME280;73873;40.084;32.908;2024-01-07T16:27:12;88911.88;;;8.20;96.47
72585;BME280;73873;40.084;32.908;2024-01-07T16:29:39;88906.25;;;8.38;94.54
72585;BME280;73873;40.084;32.908;2024-01-07T16:32:12;88909.16;;;8.40;94.54
72585;BME280;73873;40.084;32.908;2024-01-07T16:34:40;88916.06;;;8.32;94.98
72585;BME280;73873;40.084;32.908;2024-01-07T16:37:07;88923.09;;;8.35;94.93
72585;BME280;73873;40.084;32.908;2024-01-07T16:39:34;88919.16;;;8.25;95.58
72585;BME280;73873;40.084;32.908;2024-01-07T16:42:01;88923.88;;;8.36;94.37
72585;BME280;73873;40.084;32.908;2024-01-07T16:44:28;88915.59;;;8.34;94.34
72585;BME280;73873;40.084;32.908;2024-01-07T16:46:55;88925.72;;;8.30;95.27
72585;BME280;73873;40.084;32.908;2024-01-07T16:49:22;88913.50;;;8.38;93.47
72585;BME280;73873;40.084;32.908;2024-01-07T16:51:52;88922.72;;;8.48;93.09
72585;BME280;73873;40.084;32.908;2024-01-07T16:54:19;88910.91;;;8.49;92.40
72585;BME280;73873;40.084;32.908;2024-01-07T16:56:46;88924.72;;;8.59;91.21
72585;BME280;73873;40.084;32.908;2024-01-07T16:59:12;88932.69;;;8.59;91.59
72585;BME280;73873;40.084;32.908;2024-01-07T17:01:39;88922.09;;;8.59;90.80
72585;BME280;73873;40.084;32.908;2024-01-07T17:04:06;88926.06;;;8.74;89.54
72585;BME280;73873;40.084;32.908;2024-01-07T17:06:33;88922.66;;;8.74;89.43
72585;BME280;73873;40.084;32.908;2024-01-07T17:09:00;88921.59;;;8.60;90.42
72585;BME280;73873;40.084;32.908;2024-01-07T17:11:27;88921.94;;;8.73;88.23
72585;BME280;73873;40.084;32.908;2024-01-07T17:13:54;88918.28;;;8.65;89.78
72585;BME280;73873;40.084;32.908;2024-01-07T17:16:21;88915.28;;;8.52;90.95
72585;BME280;73873;40.084;32.908;2024-01-07T17:18:48;88919.56;;;8.44;90.94
72585;BME280;73873;40.084;32.908;2024-01-07T17:21:15;88925.81;;;8.41;91.81
72585;BME280;73873;40.084;32.908;2024-01-07T17:23:42;88907.13;;;8.56;90.75
72585;BME280;73873;40.084;32.908;2024-01-07T17:26:09;88927.34;;;8.53;90.43
72585;BME280;73873;40.084;32.908;2024-01-07T17:28:36;88908.25;;;8.49;90.91
72585;BME280;73873;40.084;32.908;2024-01-07T17:31:03;88917.84;;;8.72;88.37